Time;durP1;ratioP1;P1;durP2;ratioP2;P2;SDS_P1;SDS_P2;PMS_P1;PMS_P2;Temp;Humidity;BMP_temperature;BMP_pressure;BME280_temperature;BME280_humidity;BME280_pressure;Samples;Min_cycle;Max_cycle;Signal;HPM_P1;HPM_P2
2023/04/19 00:00:42;;;;;;;;;;;;;;;9.03;89.57;96789.86;108588;1281;22535;-84
2023/04/19 00:03:17;;;;;;;;;;;;;;;9.03;89.75;96787.54;108540;1282;22947;-83
2023/04/19 00:05:45;;;;;;;;;;;;;;;9.04;90.02;96787.38;108519;1282;48579;-84
2023/04/19 00:08:12;;;;;;;;;;;;;;;9.04;90.12;96783.89;108564;1282;23793;-83
2023/04/19 00:10:40;;;;;;;;;;;;;;;9.04;90.38;96787.05;108545;1282;22577;-84
2023/04/19 00:13:07;;;;;;;;;;;;;;;9.06;90.55;96785.05;108546;1281;22507;-83
2023/04/19 00:15:34;;;;;;;;;;;;;;;9.07;90.76;96781.87;108495;1282;55942;-84
2023/04/19 00:18:02;;;;;;;;;;;;;;;9.07;90.78;96779.76;108549;1282;22515;-84
2023/04/19 00:20:29;;;;;;;;;;;;;;;9.07;90.94;96775.94;108575;1282;25350;-83
2023/04/19 00:22:58;;;;;;;;;;;;;;;9.08;91.07;96768.54;108551;1276;24333;-83
2023/04/19 00:25:25;;;;;;;;;;;;;;;9.08;91.16;96768.27;108554;1282;53558;-83
2023/04/19 00:27:52;;;;;;;;;;;;;;;9.06;91.12;96767.07;108552;1282;25346;-83
2023/04/19 00:30:20;;;;;;;;;;;;;;;9.04;91.31;96767.38;108579;1281;22548;-84
2023/04/19 00:32:47;;;;;;;;;;;;;;;9.03;91.52;96764.10;108571;1276;23856;-84
2023/04/19 00:35:14;;;;;;;;;;;;;;;9.01;91.58;96764.88;108501;1282;63110;-84
2023/04/19 00:37:42;;;;;;;;;;;;;;;9.02;91.66;96759.83;108536;1281;22555;-83
2023/04/19 00:40:09;;;;;;;;;;;;;;;9.02;91.72;96756.76;108565;1282;22521;-83
2023/04/19 00:42:37;;;;;;;;;;;;;;;9.00;91.62;96756.67;108577;1274;22617;-83
2023/04/19 00:45:05;;;;;;;;;;;;;;;9.01;91.73;96756.68;108483;1280;50354;-84
2023/04/19 00:47:33;;;;;;;;;;;;;;;8.99;91.92;96751.08;108567;1282;25094;-83
2023/04/19 00:50:00;;;;;;;;;;;;;;;8.96;91.98;96750.70;108563;1278;24174;-84
2023/04/19 00:52:28;;;;;;;;;;;;;;;8.95;92.09;96746.37;108553;1274;22573;-83
2023/04/19 00:54:57;;;;;;;;;;;;;;;8.96;92.13;96741.98;108542;1281;53111;-83
2023/04/19 00:57:24;;;;;;;;;;;;;;;8.98;92.29;96744.89;108585;1282;22496;-83
2023/04/19 00:59:52;;;;;;;;;;;;;;;9.00;92.24;96741.49;108521;1282;22531;-83
2023/04/19 01:02:20;;;;;;;;;;;;;;;9.00;92.42;96738.48;108545;1282;22515;-83
2023/04/19 01:04:47;;;;;;;;;;;;;;;8.99;92.41;96734.58;108525;1282;26766;-83
2023/04/19 01:07:14;;;;;;;;;;;;;;;8.98;92.32;96731.98;108525;1281;22582;-84
2023/04/19 01:09:43;;;;;;;;;;;;;;;8.98;92.37;96729.29;108608;1282;22536;-83
2023/04/19 01:12:10;;;;;;;;;;;;;;;8.98;92.46;96726.27;108596;1279;22519;-83
2023/04/19 01:14:37;;;;;;;;;;;;;;;8.98;92.17;96728.11;108476;1282;54119;-84
2023/04/19 01:17:06;;;;;;;;;;;;;;;8.96;92.14;96718.86;108582;1281;22592;-84
2023/04/19 01:19:33;;;;;;;;;;;;;;;8.97;92.10;96718.09;108572;1279;22503;-83
2023/04/19 01:22:03;;;;;;;;;;;;;;;8.96;92.03;96709.83;108568;1282;24253;-83
2023/04/19 01:24:30;;;;;;;;;;;;;;;8.94;91.87;96705.61;108530;1282;40493;-83
2023/04/19 01:26:58;;;;;;;;;;;;;;;8.90;91.80;96706.40;108664;1279;22550;-84
2023/04/19 01:29:25;;;;;;;;;;;;;;;8.90;91.92;96699.05;108584;1282;24805;-83
2023/04/19 01:31:52;;;;;;;;;;;;;;;8.90;91.82;96698.27;108503;1282;22515;-84
2023/04/19 01:34:21;;;;;;;;;;;;;;;8.90;92.06;96694.19;108492;1281;62074;-84
2023/04/19 01:36:49;;;;;;;;;;;;;;;8.82;92.42;96689.38;108601;1282;22523;-84
2023/04/19 01:39:16;;;;;;;;;;;;;;;8.76;92.51;96687.84;108646;1282;23992;-83
2023/04/19 01:41:43;;;;;;;;;;;;;;;8.74;92.73;96685.47;108557;1274;23899;-84
2023/04/19 01:44:12;;;;;;;;;;;;;;;8.73;92.95;96683.88;108490;1282;41310;-84
2023/04/19 01:46:41;;;;;;;;;;;;;;;8.74;92.91;96679.92;108564;1282;22551;-84
2023/04/19 01:49:09;;;;;;;;;;;;;;;8.72;93.13;96677.79;108600;1276;22538;-83
2023/04/19 01:51:37;;;;;;;;;;;;;;;8.71;93.28;96674.61;108656;1281;22635;-84
2023/04/19 01:54:05;;;;;;;;;;;;;;;8.71;93.56;96672.86;108621;1280;61819;-84
2023/04/19 01:56:32;;;;;;;;;;;;;;;8.72;93.79;96673.52;108572;1281;22515;-83
2023/04/19 01:58:59;;;;;;;;;;;;;;;8.67;94.10;96671.29;108550;1282;22540;-83
2023/04/19 02:01:27;;;;;;;;;;;;;;;8.60;94.65;96672.71;108605;1281;22516;-83
2023/04/19 02:03:54;;;;;;;;;;;;;;;8.52;95.41;96671.17;108565;1279;46091;-83
2023/04/19 02:06:21;;;;;;;;;;;;;;;8.45;96.01;96667.68;108575;1280;22503;-83
2023/04/19 02:08:49;;;;;;;;;;;;;;;8.39;96.01;96662.50;108566;1282;22592;-83
2023/04/19 02:11:16;;;;;;;;;;;;;;;8.40;96.12;96662.70;108571;1282;22539;-83
2023/04/19 02:13:43;;;;;;;;;;;;;;;8.43;96.42;96661.86;108564;1273;47742;-83
2023/04/19 02:16:11;;;;;;;;;;;;;;;8.47;96.55;96664.41;108591;1275;22525;-84
2023/04/19 02:18:39;;;;;;;;;;;;;;;8.49;96.63;96664.68;108558;1282;23218;-83
2023/04/19 02:21:07;;;;;;;;;;;;;;;8.49;96.61;96663.61;108563;1282;23869;-84
2023/04/19 02:23:34;;;;;;;;;;;;;;;8.52;96.69;96661.30;108646;1281;30610;-84
2023/04/19 02:26:02;;;;;;;;;;;;;;;8.51;96.65;96658.49;108618;1280;22553;-83
2023/04/19 02:28:29;;;;;;;;;;;;;;;8.51;96.59;96654.59;108580;1277;22572;-83
2023/04/19 02:30:56;;;;;;;;;;;;;;;8.51;96.61;96651.52;108579;1282;24239;-84
2023/04/19 02:33:24;;;;;;;;;;;;;;;8.49;96.63;96647.77;108651;1281;25412;-83
2023/04/19 02:35:51;;;;;;;;;;;;;;;8.48;96.80;96644.50;108559;1281;46864;-84
2023/04/19 02:38:19;;;;;;;;;;;;;;;8.50;96.93;96644.44;108609;1275;22626;-84
2023/04/19 02:40:46;;;;;;;;;;;;;;;8.53;96.88;96638.94;108608;1282;22569;-83
2023/04/19 02:43:13;;;;;;;;;;;;;;;8.52;96.94;96639.46;108564;1282;22515;-83
2023/04/19 02:45:41;;;;;;;;;;;;;;;8.52;97.03;96637.67;108463;1282;41984;-84
2023/04/19 02:48:08;;;;;;;;;;;;;;;8.52;97.16;96632.86;108583;1281;23288;-84
2023/04/19 02:50:37;;;;;;;;;;;;;;;8.51;97.47;96634.09;108554;1281;23015;-84
2023/04/19 02:53:05;;;;;;;;;;;;;;;8.52;97.61;96629.54;108598;1282;22609;-84
2023/04/19 02:55:33;;;;;;;;;;;;;;;8.51;97.78;96625.25;108518;1279;46243;-83
2023/04/19 02:58:00;;;;;;;;;;;;;;;8.45;98.13;96622.92;108587;1282;22540;-84
2023/04/19 03:00:27;;;;;;;;;;;;;;;8.35;98.53;96617.05;108575;1282;24219;-83
2023/04/19 03:02:55;;;;;;;;;;;;;;;8.30;98.63;96617.23;108565;1282;22494;-84
2023/04/19 03:05:23;;;;;;;;;;;;;;;8.28;99.02;96612.00;108505;1274;90408;-84
2023/04/19 03:07:50;;;;;;;;;;;;;;;8.27;99.12;96610.20;108642;1281;22501;-84
2023/04/19 03:10:18;;;;;;;;;;;;;;;8.26;99.42;96602.96;108526;1279;22516;-83
2023/04/19 03:12:45;;;;;;;;;;;;;;;8.25;99.43;96604.44;108568;1282;22633;-84
2023/04/19 03:15:12;;;;;;;;;;;;;;;8.21;99.65;96595.31;108582;1281;46235;-83
2023/04/19 03:17:39;;;;;;;;;;;;;;;8.18;99.97;96598.79;108539;1280;22525;-83
2023/04/19 03:20:10;;;;;;;;;;;;;;;8.14;100.00;96592.97;108535;1277;23878;-84
2023/04/19 03:22:45;;;;;;;;;;;;;;;8.09;100.00;96595.92;108551;1282;22508;-83
2023/04/19 03:25:12;;;;;;;;;;;;;;;8.04;100.00;96591.45;108513;1282;77202;-84
2023/04/19 03:27:40;;;;;;;;;;;;;;;8.04;100.00;96589.39;108548;1282;22550;-83
2023/04/19 03:30:08;;;;;;;;;;;;;;;8.05;100.00;96586.21;108550;1282;22518;-84
2023/04/19 03:32:35;;;;;;;;;;;;;;;8.04;100.00;96588.27;108573;1276;22511;-84
2023/04/19 03:35:03;;;;;;;;;;;;;;;8.02;100.00;96585.58;108506;1282;61512;-84
2023/04/19 03:37:30;;;;;;;;;;;;;;;8.01;100.00;96582.13;108547;1282;23778;-84
2023/04/19 03:39:57;;;;;;;;;;;;;;;8.00;100.00;96580.02;108555;1281;25233;-84
2023/04/19 03:42:25;;;;;;;;;;;;;;;8.00;100.00;96576.68;108511;1282;23858;-84
2023/04/19 03:44:52;;;;;;;;;;;;;;;8.04;100.00;96577.71;108508;1278;57902;-84
2023/04/19 03:47:19;;;;;;;;;;;;;;;8.08;100.00;96571.95;108549;1282;22736;-84
2023/04/19 03:49:47;;;;;;;;;;;;;;;8.13;100.00;96571.64;108542;1282;22548;-84
2023/04/19 03:52:14;;;;;;;;;;;;;;;8.15;100.00;96567.20;108515;1276;22510;-84
2023/04/19 03:54:41;;;;;;;;;;;;;;;8.17;100.00;96560.56;108494;1280;52473;-84
2023/04/19 03:57:12;;;;;;;;;;;;;;;8.20;100.00;96563.41;108637;1281;22556;-84
2023/04/19 03:59:39;;;;;;;;;;;;;;;8.22;100.00;96563.20;108547;1282;24261;-84
2023/04/19 04:02:07;;;;;;;;;;;;;;;8.22;100.00;96561.19;108583;1282;22517;-84
2023/04/19 04:04:34;;;;;;;;;;;;;;;8.22;100.00;96558.92;108442;1274;132230;-85
2023/04/19 04:07:02;;;;;;;;;;;;;;;8.22;100.00;96551.59;108523;1282;24874;-85
2023/04/19 04:09:29;;;;;;;;;;;;;;;8.23;100.00;96552.69;108566;1282;22515;-85
2023/04/19 04:11:56;;;;;;;;;;;;;;;8.25;100.00;96555.33;108555;1280;22772;-84
2023/04/19 04:14:24;;;;;;;;;;;;;;;8.24;100.00;96556.27;108449;1275;52259;-84
2023/04/19 04:16:51;;;;;;;;;;;;;;;8.22;100.00;96553.75;108523;1282;22543;-84
2023/04/19 04:19:20;;;;;;;;;;;;;;;8.21;100.00;96550.68;108609;1276;22535;-84
2023/04/19 04:21:48;;;;;;;;;;;;;;;8.23;100.00;96552.05;108561;1273;22648;-84
2023/04/19 04:24:18;;;;;;;;;;;;;;;8.25;100.00;96549.41;108526;1281;45124;-84
2023/04/19 04:26:48;;;;;;;;;;;;;;;8.27;100.00;96548.14;108514;1282;23092;-84
2023/04/19 04:29:16;;;;;;;;;;;;;;;8.29;100.00;96550.04;108422;1282;146480;-84
2023/04/19 04:31:43;;;;;;;;;;;;;;;8.29;100.00;96547.98;108516;1275;22525;-84
2023/04/19 04:34:11;;;;;;;;;;;;;;;8.31;100.00;96551.47;108448;1282;105537;-84
2023/04/19 04:36:38;;;;;;;;;;;;;;;8.33;100.00;96552.61;108548;1264;22514;-85
2023/04/19 04:41:50;;;;;;;;;;;;;;;8.40;99.96;96556.61;108609;1281;22810;-85
2023/04/19 04:44:19;;;;;;;;;;;;;;;8.41;99.97;96557.77;108504;1281;57525;-84
2023/04/19 04:46:46;;;;;;;;;;;;;;;8.43;99.96;96560.36;108542;1281;22503;-84
2023/04/19 04:49:13;;;;;;;;;;;;;;;8.42;99.96;96558.73;108507;1282;22531;-84
2023/04/19 04:51:41;;;;;;;;;;;;;;;8.41;99.97;96554.13;108548;1279;22587;-84
2023/04/19 04:54:08;;;;;;;;;;;;;;;8.41;99.99;96556.30;108506;1281;90024;-84
2023/04/19 04:56:35;;;;;;;;;;;;;;;8.40;100.00;96554.08;108611;1275;22616;-84
2023/04/19 04:59:03;;;;;;;;;;;;;;;8.41;100.00;96555.39;108574;1275;22510;-84
2023/04/19 05:01:30;;;;;;;;;;;;;;;8.40;100.00;96548.80;108561;1282;22733;-84
2023/04/19 05:03:57;;;;;;;;;;;;;;;8.39;100.00;96552.13;108571;1273;62574;-84
2023/04/19 05:06:25;;;;;;;;;;;;;;;8.36;100.00;96549.02;108537;1282;22530;-84
2023/04/19 05:08:52;;;;;;;;;;;;;;;8.32;99.98;96549.80;108534;1282;22518;-84
2023/04/19 05:11:20;;;;;;;;;;;;;;;8.28;99.98;96546.81;108525;1282;22532;-84
2023/04/19 05:13:47;;;;;;;;;;;;;;;8.25;99.96;96544.60;108473;1276;54410;-84
2023/04/19 05:16:15;;;;;;;;;;;;;;;8.22;99.98;96544.55;108532;1282;26884;-84
2023/04/19 05:18:42;;;;;;;;;;;;;;;8.20;99.98;96545.72;108526;1268;22635;-85
2023/04/19 05:21:10;;;;;;;;;;;;;;;8.17;99.89;96548.98;108529;1274;22516;-85
2023/04/19 05:23:37;;;;;;;;;;;;;;;8.15;99.89;96550.93;108477;1276;47834;-84
2023/04/19 05:26:05;;;;;;;;;;;;;;;8.13;99.98;96548.30;108501;1282;27092;-85
2023/04/19 05:28:32;;;;;;;;;;;;;;;8.11;99.79;96546.28;108547;1274;24261;-85
2023/04/19 05:31:00;;;;;;;;;;;;;;;8.13;99.90;96551.35;108512;1282;22518;-85
2023/04/19 05:33:27;;;;;;;;;;;;;;;8.15;99.82;96551.50;108529;1282;22615;-85
2023/04/19 05:35:54;;;;;;;;;;;;;;;8.17;99.71;96550.48;108553;1282;22500;-84
2023/04/19 05:38:22;;;;;;;;;;;;;;;8.19;99.71;96550.05;108524;1282;22514;-85
2023/04/19 05:40:49;;;;;;;;;;;;;;;8.20;99.57;96548.41;108622;1282;22536;-85
2023/04/19 05:43:16;;;;;;;;;;;;;;;8.24;99.59;96543.96;108627;1282;23250;-85
2023/04/19 05:45:44;;;;;;;;;;;;;;;8.27;99.41;96541.85;108465;1282;63950;-84
2023/04/19 05:48:11;;;;;;;;;;;;;;;8.31;99.31;96541.50;108540;1282;22569;-85
2023/04/19 05:50:39;;;;;;;;;;;;;;;8.34;99.21;96537.08;108572;1279;22516;-85
2023/04/19 05:53:06;;;;;;;;;;;;;;;8.39;99.38;96533.00;108531;1282;22509;-85
2023/04/19 05:55:33;;;;;;;;;;;;;;;8.42;99.20;96533.20;108469;1275;65238;-85
2023/04/19 05:58:01;;;;;;;;;;;;;;;8.47;99.18;96531.00;108642;1281;22570;-85
2023/04/19 06:00:28;;;;;;;;;;;;;;;8.48;99.00;96534.22;108532;1282;24453;-85
2023/04/19 06:02:55;;;;;;;;;;;;;;;8.47;98.87;96531.69;108503;1282;22493;-84
2023/04/19 06:05:24;;;;;;;;;;;;;;;8.42;98.41;96531.35;108534;1275;77548;-84
2023/04/19 06:07:55;;;;;;;;;;;;;;;8.39;98.33;96533.63;108528;1282;22511;-84
2023/04/19 06:10:22;;;;;;;;;;;;;;;8.37;98.41;96535.23;108485;1271;22521;-85
2023/04/19 06:12:49;;;;;;;;;;;;;;;8.33;98.44;96537.12;108535;1282;22534;-85
2023/04/19 06:15:17;;;;;;;;;;;;;;;8.29;98.17;96540.44;108518;1279;49182;-85
2023/04/19 06:17:44;;;;;;;;;;;;;;;8.26;98.30;96541.95;108549;1275;22573;-84
2023/04/19 06:20:12;;;;;;;;;;;;;;;8.27;98.53;96541.05;108545;1276;22564;-84
2023/04/19 06:22:42;;;;;;;;;;;;;;;8.24;98.43;96541.64;108543;1273;22495;-85
2023/04/19 06:25:09;;;;;;;;;;;;;;;8.22;98.27;96537.16;108481;1282;66835;-84
2023/04/19 06:27:37;;;;;;;;;;;;;;;8.21;98.56;96536.79;108510;1274;25449;-85
2023/04/19 06:30:05;;;;;;;;;;;;;;;8.22;98.53;96538.59;108537;1274;22551;-85
2023/04/19 06:32:32;;;;;;;;;;;;;;;8.20;98.41;96540.81;108542;1281;24226;-85
2023/04/19 06:35:00;;;;;;;;;;;;;;;8.18;98.61;96537.59;108499;1278;52718;-84
2023/04/19 06:37:27;;;;;;;;;;;;;;;8.17;98.59;96539.11;108571;1282;23277;-85
2023/04/19 06:39:55;;;;;;;;;;;;;;;8.13;98.46;96537.99;108633;1281;22498;-84
2023/04/19 06:42:24;;;;;;;;;;;;;;;8.10;98.39;96538.05;108582;1278;22660;-85
2023/04/19 06:44:52;;;;;;;;;;;;;;;8.08;98.56;96537.79;108471;1281;50872;-84
2023/04/19 06:47:19;;;;;;;;;;;;;;;8.07;98.48;96538.95;108489;1282;22537;-84
2023/04/19 06:49:46;;;;;;;;;;;;;;;8.05;98.61;96538.11;108529;1282;22487;-84
2023/04/19 06:52:14;;;;;;;;;;;;;;;8.05;98.46;96542.39;108525;1282;22536;-84
2023/04/19 06:54:41;;;;;;;;;;;;;;;8.03;98.53;96542.28;108533;1274;36439;-84
2023/04/19 06:57:10;;;;;;;;;;;;;;;8.06;98.59;96540.91;108617;1281;24676;-84
2023/04/19 06:59:38;;;;;;;;;;;;;;;8.06;98.47;96537.70;108565;1281;22723;-84
2023/04/19 07:02:10;;;;;;;;;;;;;;;8.06;98.57;96536.69;108530;1282;22513;-84
2023/04/19 07:04:37;;;;;;;;;;;;;;;8.07;98.59;96537.90;108497;1282;94161;-85
2023/04/19 07:07:04;;;;;;;;;;;;;;;8.09;98.71;96539.32;108531;1282;22550;-84
2023/04/19 07:09:32;;;;;;;;;;;;;;;8.09;98.60;96537.15;108514;1282;22507;-85
2023/04/19 07:12:00;;;;;;;;;;;;;;;8.08;98.57;96538.22;108565;1280;22556;-85
2023/04/19 07:14:27;;;;;;;;;;;;;;;8.08;98.52;96540.48;108481;1282;76621;-85
2023/04/19 07:16:55;;;;;;;;;;;;;;;8.09;98.47;96538.42;108532;1275;22515;-84
2023/04/19 07:19:22;;;;;;;;;;;;;;;8.09;98.56;96534.99;108518;1282;22577;-84
2023/04/19 07:21:50;;;;;;;;;;;;;;;8.10;98.40;96541.23;108547;1282;23407;-84
2023/04/19 07:24:17;;;;;;;;;;;;;;;8.10;98.44;96537.63;108515;1267;44882;-84
2023/04/19 07:26:48;;;;;;;;;;;;;;;8.08;98.35;96536.58;108523;1282;22495;-84
2023/04/19 07:29:15;;;;;;;;;;;;;;;8.05;98.30;96542.34;108537;1281;22512;-83
2023/04/19 07:31:42;;;;;;;;;;;;;;;8.05;98.26;96543.45;108534;1275;22635;-84
2023/04/19 07:34:10;;;;;;;;;;;;;;;8.03;98.26;96539.54;108451;1282;66491;-84
2023/04/19 07:36:37;;;;;;;;;;;;;;;8.04;98.39;96540.23;108520;1282;22595;-84
2023/04/19 07:39:05;;;;;;;;;;;;;;;8.01;98.28;96536.25;108550;1282;22547;-84
2023/04/19 07:41:32;;;;;;;;;;;;;;;7.99;98.24;96541.27;108544;1282;23236;-84
2023/04/19 07:44:00;;;;;;;;;;;;;;;7.99;98.32;96542.90;108487;1282;42552;-83
2023/04/19 07:46:27;;;;;;;;;;;;;;;7.98;98.43;96542.42;108527;1282;22517;-83
2023/04/19 07:48:54;;;;;;;;;;;;;;;7.95;98.36;96542.52;108563;1282;22613;-84
2023/04/19 07:51:23;;;;;;;;;;;;;;;7.85;98.02;96544.63;108529;1282;25441;-84
2023/04/19 07:53:51;;;;;;;;;;;;;;;7.79;98.16;96547.53;108505;1274;44687;-84
2023/04/19 07:56:19;;;;;;;;;;;;;;;7.76;98.38;96548.67;108539;1281;22744;-84
2023/04/19 07:58:46;;;;;;;;;;;;;;;7.72;98.42;96550.88;108606;1274;23834;-84
2023/04/19 08:01:13;;;;;;;;;;;;;;;7.69;98.34;96549.29;108552;1282;22500;-84
2023/04/19 08:03:40;;;;;;;;;;;;;;;7.67;98.50;96550.55;108473;1282;64212;-83
2023/04/19 08:06:08;;;;;;;;;;;;;;;7.68;98.56;96550.98;108494;1274;22511;-84
2023/04/19 08:08:35;;;;;;;;;;;;;;;7.67;98.44;96551.24;108508;1282;22723;-84
2023/04/19 08:11:03;;;;;;;;;;;;;;;7.63;98.32;96549.82;108510;1274;22600;-84
2023/04/19 08:13:30;;;;;;;;;;;;;;;7.63;98.65;96548.82;108502;1274;43538;-84
2023/04/19 08:15:58;;;;;;;;;;;;;;;7.62;98.59;96547.49;108502;1275;22505;-84
2023/04/19 08:18:25;;;;;;;;;;;;;;;7.60;98.53;96550.38;108514;1282;25933;-84
2023/04/19 08:20:53;;;;;;;;;;;;;;;7.60;98.72;96547.70;108586;1282;22526;-84
2023/04/19 08:23:20;;;;;;;;;;;;;;;7.62;98.87;96550.66;108522;1282;22527;-83
2023/04/19 08:25:47;;;;;;;;;;;;;;;7.63;99.08;96547.08;108558;1281;61492;-84
2023/04/19 08:28:14;;;;;;;;;;;;;;;7.63;99.18;96549.60;108519;1281;22787;-84
2023/04/19 08:30:42;;;;;;;;;;;;;;;7.64;99.32;96546.55;108565;1282;22506;-84
2023/04/19 08:33:10;;;;;;;;;;;;;;;7.64;99.25;96547.13;108555;1279;22539;-84
2023/04/19 08:35:39;;;;;;;;;;;;;;;7.64;99.32;96550.55;108542;1282;56115;-84
2023/04/19 08:38:07;;;;;;;;;;;;;;;7.66;99.30;96550.45;108551;1282;23960;-84
2023/04/19 08:40:34;;;;;;;;;;;;;;;7.64;99.16;96551.66;108546;1282;24222;-84
2023/04/19 08:43:06;;;;;;;;;;;;;;;7.65;99.30;96550.98;108524;1282;22543;-84
2023/04/19 08:45:34;;;;;;;;;;;;;;;7.69;99.55;96552.36;108471;1280;47754;-84
2023/04/19 08:48:02;;;;;;;;;;;;;;;7.68;99.47;96550.34;108548;1275;22561;-84
2023/04/19 08:50:30;;;;;;;;;;;;;;;7.68;99.57;96552.67;108568;1282;22630;-85
2023/04/19 08:52:58;;;;;;;;;;;;;;;7.71;99.67;96549.98;108574;1282;25489;-84
2023/04/19 08:55:27;;;;;;;;;;;;;;;7.73;99.79;96550.66;108529;1270;70200;-84
2023/04/19 08:57:55;;;;;;;;;;;;;;;7.75;99.91;96555.39;108661;1281;23357;-84
2023/04/19 09:00:23;;;;;;;;;;;;;;;7.79;99.98;96552.38;108508;1279;22546;-84
2023/04/19 09:02:51;;;;;;;;;;;;;;;7.82;99.98;96552.86;108533;1282;22521;-84
2023/04/19 09:05:18;;;;;;;;;;;;;;;7.82;100.00;96552.91;108529;1278;56293;-84
2023/04/19 09:07:46;;;;;;;;;;;;;;;7.81;99.93;96553.76;108563;1281;22536;-84
2023/04/19 09:10:15;;;;;;;;;;;;;;;7.84;100.00;96551.54;108593;1282;22511;-84
2023/04/19 09:12:43;;;;;;;;;;;;;;;7.88;100.00;96546.91;108593;1282;25281;-84
2023/04/19 09:15:10;;;;;;;;;;;;;;;7.92;100.00;96550.23;108527;1282;56231;-84
2023/04/19 09:17:38;;;;;;;;;;;;;;;7.91;100.00;96549.82;108553;1282;22474;-84
2023/04/19 09:20:07;;;;;;;;;;;;;;;7.90;99.85;96551.57;108552;1282;22542;-84
2023/04/19 09:22:34;;;;;;;;;;;;;;;7.89;99.88;96553.41;108641;1281;22506;-84
2023/04/19 09:25:06;;;;;;;;;;;;;;;7.92;100.00;96554.94;108515;1282;50843;-84
2023/04/19 09:27:35;;;;;;;;;;;;;;;7.94;99.99;96554.41;108538;1282;24292;-85
2023/04/19 09:30:03;;;;;;;;;;;;;;;7.97;100.00;96551.88;108544;1279;25067;-85
2023/04/19 09:32:45;;;;;;;;;;;;;;;7.99;99.98;96551.61;108555;1282;24778;-85
2023/04/19 09:35:13;;;;;;;;;;;;;;;8.04;99.95;96550.89;108468;1277;79401;-85
2023/04/19 09:37:40;;;;;;;;;;;;;;;8.04;99.55;96554.01;108522;1282;23022;-84
2023/04/19 09:40:21;;;;;;;;;;;;;;;8.07;99.63;96552.05;108464;1279;25411;-85
2023/04/19 09:42:49;;;;;;;;;;;;;;;8.03;99.14;96553.89;108523;1282;22500;-85
2023/04/19 09:45:16;;;;;;;;;;;;;;;8.02;99.40;96555.48;108484;1280;44857;-85
2023/04/19 09:47:44;;;;;;;;;;;;;;;8.05;99.72;96556.75;108539;1282;22501;-85
2023/04/19 09:50:12;;;;;;;;;;;;;;;8.06;99.86;96557.65;108552;1274;22554;-85
2023/04/19 09:52:39;;;;;;;;;;;;;;;8.08;100.00;96559.60;108503;1282;22549;-85
2023/04/19 09:55:07;;;;;;;;;;;;;;;8.09;99.99;96561.14;108468;1274;64138;-85
2023/04/19 09:57:34;;;;;;;;;;;;;;;8.09;100.00;96558.92;108645;1280;23918;-85
2023/04/19 10:00:05;;;;;;;;;;;;;;;8.08;99.99;96561.08;108515;1280;22518;-85
2023/04/19 10:02:33;;;;;;;;;;;;;;;8.06;100.00;96559.13;108575;1282;22505;-85
2023/04/19 10:05:03;;;;;;;;;;;;;;;8.03;100.00;96561.50;108526;1279;40683;-85
2023/04/19 10:07:30;;;;;;;;;;;;;;;8.02;100.00;96559.95;108527;1282;23236;-85
2023/04/19 10:09:58;;;;;;;;;;;;;;;8.06;100.00;96564.46;108535;1274;22631;-85
2023/04/19 10:12:26;;;;;;;;;;;;;;;8.14;100.00;96561.71;108562;1274;22517;-85
2023/04/19 10:14:56;;;;;;;;;;;;;;;8.20;100.00;96561.09;108469;1282;74858;-85
2023/04/19 10:17:23;;;;;;;;;;;;;;;8.26;100.00;96558.91;108461;1281;25226;-86
2023/04/19 10:19:56;;;;;;;;;;;;;;;8.36;100.00;96559.16;108533;1280;22511;-86
2023/04/19 10:22:23;;;;;;;;;;;;;;;8.48;100.00;96555.09;108629;1274;22535;-85
2023/04/19 10:25:28;;;;;;;;;;;;;;;8.59;100.00;96556.02;108485;1274;56740;-86
2023/04/19 10:27:55;;;;;;;;;;;;;;;8.70;100.00;96554.67;108545;1282;25443;-86
2023/04/19 10:30:25;;;;;;;;;;;;;;;8.73;100.00;96555.06;108575;1277;22576;-86
2023/04/19 10:32:54;;;;;;;;;;;;;;;8.72;99.99;96555.25;108566;1282;22545;-85
2023/04/19 10:35:23;;;;;;;;;;;;;;;8.66;99.77;96552.73;108516;1279;62223;-85
2023/04/19 10:38:07;;;;;;;;;;;;;;;8.62;99.74;96553.80;108532;1282;23324;-86
2023/04/19 10:40:52;;;;;;;;;;;;;;;8.58;99.58;96552.54;108536;1282;22517;-86
2023/04/19 10:43:20;;;;;;;;;;;;;;;8.52;99.72;96555.49;108553;1281;23284;-86
2023/04/19 10:45:48;;;;;;;;;;;;;;;8.50;99.35;96555.14;108515;1282;23856;-86
2023/04/19 10:48:38;;;;;;;;;;;;;;;8.48;99.29;96556.05;108615;1282;22538;-85
2023/04/19 10:51:10;;;;;;;;;;;;;;;8.47;99.43;96558.10;108503;1274;22632;-85
2023/04/19 10:53:45;;;;;;;;;;;;;;;8.36;99.53;96556.83;108432;1277;76970;-85
2023/04/19 10:56:12;;;;;;;;;;;;;;;8.21;99.77;96561.23;108585;1281;22744;-85
2023/04/19 10:58:58;;;;;;;;;;;;;;;8.11;100.00;96560.92;108588;1281;22527;-86
2023/04/19 11:01:38;;;;;;;;;;;;;;;7.99;100.00;96565.87;108583;1279;22580;-85
2023/04/19 11:04:05;;;;;;;;;;;;;;;7.97;100.00;96567.29;108653;1277;32130;-85
2023/04/19 11:06:33;;;;;;;;;;;;;;;7.94;100.00;96567.83;108556;1282;22552;-87
2023/04/19 11:09:03;;;;;;;;;;;;;;;7.95;100.00;96566.13;108568;1275;23254;-86
2023/04/19 11:11:32;;;;;;;;;;;;;;;7.93;100.00;96565.55;108673;1274;22561;-86
2023/04/19 11:14:01;;;;;;;;;;;;;;;7.84;100.00;96568.38;108513;1278;69523;-86
2023/04/19 11:16:28;;;;;;;;;;;;;;;7.66;100.00;96570.46;108565;1281;22540;-86
2023/04/19 11:18:55;;;;;;;;;;;;;;;7.58;100.00;96567.84;108547;1282;22528;-86
2023/04/19 11:21:23;;;;;;;;;;;;;;;7.54;100.00;96566.77;108558;1282;22546;-86
2023/04/19 11:24:04;;;;;;;;;;;;;;;7.41;100.00;96570.85;108526;1282;45495;-86
2023/04/19 11:26:32;;;;;;;;;;;;;;;7.29;100.00;96568.00;108530;1282;22508;-86
2023/04/19 11:28:59;;;;;;;;;;;;;;;7.29;100.00;96568.90;108545;1282;22524;-86
2023/04/19 11:31:27;;;;;;;;;;;;;;;7.30;100.00;96569.90;108560;1282;22525;-86
2023/04/19 11:33:57;;;;;;;;;;;;;;;7.36;100.00;96568.88;108503;1282;62214;-86
2023/04/19 11:36:25;;;;;;;;;;;;;;;7.44;100.00;96567.27;108566;1282;22532;-86
2023/04/19 11:38:52;;;;;;;;;;;;;;;7.48;100.00;96560.60;108559;1282;23856;-86
2023/04/19 11:41:20;;;;;;;;;;;;;;;7.55;100.00;96563.24;108593;1275;22523;-86
2023/04/19 11:43:47;;;;;;;;;;;;;;;7.51;100.00;96562.18;108536;1278;58491;-86
2023/04/19 11:46:15;;;;;;;;;;;;;;;7.44;100.00;96558.67;108537;1282;24417;-86
2023/04/19 11:48:50;;;;;;;;;;;;;;;7.36;100.00;96556.86;108551;1282;22513;-86
2023/04/19 11:51:18;;;;;;;;;;;;;;;7.34;100.00;96555.48;108527;1279;22546;-85
2023/04/19 11:53:46;;;;;;;;;;;;;;;7.32;100.00;96555.36;108526;1274;43343;-85
2023/04/19 11:56:15;;;;;;;;;;;;;;;7.32;100.00;96561.16;108616;1281;22529;-86
2023/04/19 11:58:44;;;;;;;;;;;;;;;7.33;100.00;96562.77;108593;1281;22504;-86
2023/04/19 12:01:12;;;;;;;;;;;;;;;7.35;100.00;96561.29;108540;1282;22541;-85
2023/04/19 12:03:45;;;;;;;;;;;;;;;7.36;100.00;96565.52;108475;1282;70513;-85
2023/04/19 12:06:13;;;;;;;;;;;;;;;7.32;100.00;96567.48;108619;1281;23369;-85
2023/04/19 12:08:43;;;;;;;;;;;;;;;7.32;100.00;96568.22;108545;1282;24221;-85
2023/04/19 12:11:13;;;;;;;;;;;;;;;7.31;100.00;96569.37;108609;1281;22547;-85
2023/04/19 12:13:41;;;;;;;;;;;;;;;7.26;100.00;96574.06;108517;1281;61171;-85
2023/04/19 12:16:08;;;;;;;;;;;;;;;7.22;100.00;96574.05;108542;1275;22605;-85
2023/04/19 12:18:43;;;;;;;;;;;;;;;7.30;100.00;96572.48;108604;1281;23622;-85
2023/04/19 12:21:12;;;;;;;;;;;;;;;7.41;100.00;96575.38;108643;1281;24162;-85
2023/04/19 12:23:57;;;;;;;;;;;;;;;7.47;100.00;96577.68;107325;1278;1758181;-86
2023/04/19 12:26:35;;;;;;;;;;;;;;;7.54;100.00;96577.70;108553;1274;22518;-86
2023/04/19 12:29:05;;;;;;;;;;;;;;;7.67;100.00;96574.25;108561;1278;22761;-85
2023/04/19 12:31:32;;;;;;;;;;;;;;;7.84;100.00;96573.02;108567;1274;22821;-86
2023/04/19 12:34:00;;;;;;;;;;;;;;;7.97;100.00;96579.43;108515;1281;44349;-85
2023/04/19 12:36:29;;;;;;;;;;;;;;;7.99;100.00;96577.64;108538;1274;22532;-86
2023/04/19 12:38:56;;;;;;;;;;;;;;;7.98;100.00;96577.58;108553;1282;24234;-85
2023/04/19 12:41:23;;;;;;;;;;;;;;;8.03;100.00;96576.34;108549;1273;22504;-85
2023/04/19 12:43:51;;;;;;;;;;;;;;;8.02;100.00;96574.73;108582;1281;49058;-85
2023/04/19 12:46:18;;;;;;;;;;;;;;;7.94;100.00;96581.29;108547;1282;23287;-86
2023/04/19 12:48:45;;;;;;;;;;;;;;;7.87;100.00;96579.27;108583;1282;25003;-86
2023/04/19 12:51:13;;;;;;;;;;;;;;;7.89;100.00;96574.20;108554;1282;22531;-85